sensor_id;sensor_type;location;lat;lon;timestamp;P1;durP1;ratioP1;P2;durP2;ratioP2
33593;SDS011;19920;52.242;20.940;2022-11-21T00:00:29;77.20;;;36.72;;
33593;SDS011;19920;52.242;20.940;2022-11-21T00:02:59;79.05;;;36.90;;
33593;SDS011;19920;52.242;20.940;2022-11-21T00:05:26;79.30;;;36.92;;
33593;SDS011;19920;52.242;20.940;2022-11-21T00:07:53;84.68;;;38.88;;
33593;SDS011;19920;52.242;20.940;2022-11-21T00:10:19;80.30;;;37.58;;
33593;SDS011;19920;52.242;20.940;2022-11-21T00:12:45;80.10;;;36.50;;
33593;SDS011;19920;52.242;20.940;2022-11-21T00:15:11;75.32;;;34.55;;
33593;SDS011;19920;52.242;20.940;2022-11-21T00:17:36;82.30;;;37.38;;
33593;SDS011;19920;52.242;20.940;2022-11-21T00:20:02;81.68;;;36.75;;
33593;SDS011;19920;52.242;20.940;2022-11-21T00:22:29;88.63;;;38.97;;
33593;SDS011;19920;52.242;20.940;2022-11-21T00:24:55;79.68;;;36.63;;
33593;SDS011;19920;52.242;20.940;2022-11-21T00:27:21;80.15;;;36.42;;
33593;SDS011;19920;52.242;20.940;2022-11-21T00:29:47;78.15;;;35.90;;
33593;SDS011;19920;52.242;20.940;2022-11-21T00:32:12;80.78;;;36.28;;
33593;SDS011;19920;52.242;20.940;2022-11-21T00:34:38;83.28;;;37.17;;
33593;SDS011;19920;52.242;20.940;2022-11-21T00:37:04;75.35;;;37.03;;
33593;SDS011;19920;52.242;20.940;2022-11-21T00:39:29;81.90;;;37.95;;
33593;SDS011;19920;52.242;20.940;2022-11-21T00:41:55;80.25;;;37.22;;
33593;SDS011;19920;52.242;20.940;2022-11-21T00:44:21;82.32;;;36.65;;
33593;SDS011;19920;52.242;20.940;2022-11-21T00:46:46;79.68;;;36.42;;
33593;SDS011;19920;52.242;20.940;2022-11-21T00:49:12;80.90;;;37.10;;
33593;SDS011;19920;52.242;20.940;2022-11-21T00:51:38;82.28;;;36.72;;
33593;SDS011;19920;52.242;20.940;2022-11-21T00:54:03;77.97;;;36.88;;
33593;SDS011;19920;52.242;20.940;2022-11-21T00:56:29;79.50;;;37.22;;
33593;SDS011;19920;52.242;20.940;2022-11-21T00:58:54;80.88;;;37.20;;
33593;SDS011;19920;52.242;20.940;2022-11-21T01:01:20;80.93;;;36.92;;
33593;SDS011;19920;52.242;20.940;2022-11-21T01:03:46;79.30;;;37.90;;
33593;SDS011;19920;52.242;20.940;2022-11-21T01:06:12;84.78;;;36.85;;
33593;SDS011;19920;52.242;20.940;2022-11-21T01:08:40;81.47;;;36.63;;
33593;SDS011;19920;52.242;20.940;2022-11-21T01:11:08;83.82;;;39.40;;
33593;SDS011;19920;52.242;20.940;2022-11-21T01:13:35;82.60;;;37.05;;
33593;SDS011;19920;52.242;20.940;2022-11-21T01:16:02;85.20;;;37.40;;
33593;SDS011;19920;52.242;20.940;2022-11-21T01:18:29;86.93;;;38.25;;
33593;SDS011;19920;52.242;20.940;2022-11-21T01:21:02;84.20;;;37.90;;
33593;SDS011;19920;52.242;20.940;2022-11-21T01:23:29;84.75;;;38.75;;
33593;SDS011;19920;52.242;20.940;2022-11-21T01:25:59;86.18;;;37.35;;
33593;SDS011;19920;52.242;20.940;2022-11-21T01:28:28;86.55;;;37.92;;
33593;SDS011;19920;52.242;20.940;2022-11-21T01:30:54;83.90;;;37.33;;
33593;SDS011;19920;52.242;20.940;2022-11-21T01:33:19;87.78;;;37.88;;
33593;SDS011;19920;52.242;20.940;2022-11-21T01:35:45;84.88;;;38.08;;
33593;SDS011;19920;52.242;20.940;2022-11-21T01:38:11;83.80;;;37.65;;
33593;SDS011;19920;52.242;20.940;2022-11-21T01:40:37;81.40;;;37.58;;
33593;SDS011;19920;52.242;20.940;2022-11-21T01:43:11;89.43;;;39.15;;
33593;SDS011;19920;52.242;20.940;2022-11-21T01:48:21;84.47;;;38.78;;
33593;SDS011;19920;52.242;20.940;2022-11-21T01:53:59;89.95;;;38.60;;
33593;SDS011;19920;52.242;20.940;2022-11-21T01:56:39;86.32;;;36.53;;
33593;SDS011;19920;52.242;20.940;2022-11-21T01:59:14;88.93;;;39.13;;
33593;SDS011;19920;52.242;20.940;2022-11-21T02:01:46;85.00;;;37.88;;
33593;SDS011;19920;52.242;20.940;2022-11-21T02:04:15;85.00;;;36.78;;
33593;SDS011;19920;52.242;20.940;2022-11-21T02:06:41;87.43;;;38.05;;
33593;SDS011;19920;52.242;20.940;2022-11-21T02:09:08;89.38;;;39.45;;
33593;SDS011;19920;52.242;20.940;2022-11-21T02:11:38;93.63;;;37.97;;
33593;SDS011;19920;52.242;20.940;2022-11-21T02:14:09;84.07;;;37.13;;
33593;SDS011;19920;52.242;20.940;2022-11-21T02:16:35;93.50;;;38.85;;
33593;SDS011;19920;52.242;20.940;2022-11-21T02:19:01;82.55;;;38.05;;
33593;SDS011;19920;52.242;20.940;2022-11-21T02:24:03;79.65;;;36.92;;
33593;SDS011;19920;52.242;20.940;2022-11-21T02:26:32;89.95;;;38.17;;
33593;SDS011;19920;52.242;20.940;2022-11-21T02:28:58;85.97;;;37.83;;
33593;SDS011;19920;52.242;20.940;2022-11-21T02:31:24;87.03;;;38.42;;
33593;SDS011;19920;52.242;20.940;2022-11-21T02:33:49;84.20;;;38.17;;
33593;SDS011;19920;52.242;20.940;2022-11-21T02:39:04;92.97;;;38.63;;
33593;SDS011;19920;52.242;20.940;2022-11-21T02:44:56;86.25;;;37.53;;
33593;SDS011;19920;52.242;20.940;2022-11-21T02:47:24;86.15;;;38.13;;
33593;SDS011;19920;52.242;20.940;2022-11-21T02:52:46;85.57;;;37.60;;
33593;SDS011;19920;52.242;20.940;2022-11-21T02:55:11;92.63;;;38.63;;
33593;SDS011;19920;52.242;20.940;2022-11-21T02:57:39;90.88;;;37.80;;
33593;SDS011;19920;52.242;20.940;2022-11-21T03:00:05;92.10;;;38.55;;
33593;SDS011;19920;52.242;20.940;2022-11-21T03:02:31;86.00;;;39.65;;
33593;SDS011;19920;52.242;20.940;2022-11-21T03:04:57;96.07;;;39.28;;
33593;SDS011;19920;52.242;20.940;2022-11-21T03:07:23;90.05;;;38.95;;
33593;SDS011;19920;52.242;20.940;2022-11-21T03:09:48;84.90;;;38.33;;
33593;SDS011;19920;52.242;20.940;2022-11-21T03:12:14;87.60;;;39.97;;
33593;SDS011;19920;52.242;20.940;2022-11-21T03:14:40;88.88;;;39.28;;
33593;SDS011;19920;52.242;20.940;2022-11-21T03:17:06;89.38;;;38.58;;
33593;SDS011;19920;52.242;20.940;2022-11-21T03:19:31;91.75;;;39.58;;
33593;SDS011;19920;52.242;20.940;2022-11-21T03:21:57;91.60;;;40.10;;
33593;SDS011;19920;52.242;20.940;2022-11-21T03:24:23;92.05;;;39.53;;
33593;SDS011;19920;52.242;20.940;2022-11-21T03:26:48;91.00;;;39.83;;
33593;SDS011;19920;52.242;20.940;2022-11-21T03:29:14;96.20;;;40.35;;
33593;SDS011;19920;52.242;20.940;2022-11-21T03:31:39;95.50;;;41.08;;
33593;SDS011;19920;52.242;20.940;2022-11-21T03:34:05;96.53;;;41.85;;
33593;SDS011;19920;52.242;20.940;2022-11-21T03:36:31;99.88;;;42.47;;
33593;SDS011;19920;52.242;20.940;2022-11-21T03:38:57;133.18;;;53.20;;
33593;SDS011;19920;52.242;20.940;2022-11-21T03:41:23;118.60;;;49.00;;
33593;SDS011;19920;52.242;20.940;2022-11-21T03:44:02;126.47;;;54.45;;
33593;SDS011;19920;52.242;20.940;2022-11-21T03:46:35;115.70;;;47.97;;
33593;SDS011;19920;52.242;20.940;2022-11-21T03:49:06;98.72;;;42.55;;
33593;SDS011;19920;52.242;20.940;2022-11-21T03:51:32;99.40;;;42.50;;
33593;SDS011;19920;52.242;20.940;2022-11-21T03:53:58;92.03;;;40.40;;
33593;SDS011;19920;52.242;20.940;2022-11-21T03:56:24;89.07;;;39.72;;
33593;SDS011;19920;52.242;20.940;2022-11-21T03:58:50;92.15;;;39.78;;
33593;SDS011;19920;52.242;20.940;2022-11-21T04:01:16;88.47;;;40.47;;
33593;SDS011;19920;52.242;20.940;2022-11-21T04:03:42;94.65;;;41.17;;
33593;SDS011;19920;52.242;20.940;2022-11-21T04:06:09;93.80;;;39.88;;
33593;SDS011;19920;52.242;20.940;2022-11-21T04:08:37;90.75;;;39.35;;
33593;SDS011;19920;52.242;20.940;2022-11-21T04:11:03;89.97;;;39.45;;
33593;SDS011;19920;52.242;20.940;2022-11-21T04:13:29;93.45;;;40.75;;
33593;SDS011;19920;52.242;20.940;2022-11-21T04:15:54;92.60;;;39.03;;
33593;SDS011;19920;52.242;20.940;2022-11-21T04:18:20;88.15;;;38.67;;
33593;SDS011;19920;52.242;20.940;2022-11-21T04:20:46;93.35;;;38.58;;
33593;SDS011;19920;52.242;20.940;2022-11-21T04:23:12;88.50;;;39.00;;
33593;SDS011;19920;52.242;20.940;2022-11-21T04:25:38;88.20;;;39.53;;
33593;SDS011;19920;52.242;20.940;2022-11-21T04:28:04;101.82;;;41.33;;
33593;SDS011;19920;52.242;20.940;2022-11-21T04:30:32;117.65;;;47.30;;
33593;SDS011;19920;52.242;20.940;2022-11-21T04:32:58;121.82;;;49.40;;
33593;SDS011;19920;52.242;20.940;2022-11-21T04:35:25;116.47;;;46.22;;
33593;SDS011;19920;52.242;20.940;2022-11-21T04:37:51;141.95;;;56.67;;
33593;SDS011;19920;52.242;20.940;2022-11-21T04:40:17;202.43;;;71.97;;
33593;SDS011;19920;52.242;20.940;2022-11-21T04:42:43;226.43;;;79.95;;
33593;SDS011;19920;52.242;20.940;2022-11-21T04:45:10;215.27;;;76.40;;
33593;SDS011;19920;52.242;20.940;2022-11-21T04:47:36;169.95;;;62.22;;
33593;SDS011;19920;52.242;20.940;2022-11-21T04:50:02;140.55;;;53.85;;
33593;SDS011;19920;52.242;20.940;2022-11-21T04:52:29;138.10;;;52.92;;
33593;SDS011;19920;52.242;20.940;2022-11-21T04:54:54;128.85;;;50.10;;
33593;SDS011;19920;52.242;20.940;2022-11-21T04:57:20;116.00;;;46.28;;
33593;SDS011;19920;52.242;20.940;2022-11-21T04:59:46;124.60;;;48.38;;
33593;SDS011;19920;52.242;20.940;2022-11-21T05:02:12;155.38;;;55.58;;
33593;SDS011;19920;52.242;20.940;2022-11-21T05:04:37;165.40;;;59.72;;
33593;SDS011;19920;52.242;20.940;2022-11-21T05:07:03;135.60;;;52.42;;
33593;SDS011;19920;52.242;20.940;2022-11-21T05:09:29;113.68;;;44.08;;
33593;SDS011;19920;52.242;20.940;2022-11-21T05:11:54;91.65;;;39.50;;
33593;SDS011;19920;52.242;20.940;2022-11-21T05:14:38;89.45;;;39.78;;
33593;SDS011;19920;52.242;20.940;2022-11-21T05:17:04;93.75;;;40.33;;
33593;SDS011;19920;52.242;20.940;2022-11-21T05:19:29;91.72;;;39.17;;
33593;SDS011;19920;52.242;20.940;2022-11-21T05:21:55;90.80;;;38.22;;
33593;SDS011;19920;52.242;20.940;2022-11-21T05:24:21;87.60;;;38.65;;
33593;SDS011;19920;52.242;20.940;2022-11-21T05:26:46;90.25;;;39.75;;
33593;SDS011;19920;52.242;20.940;2022-11-21T05:29:12;87.82;;;38.42;;
33593;SDS011;19920;52.242;20.940;2022-11-21T05:31:38;81.85;;;37.03;;
33593;SDS011;19920;52.242;20.940;2022-11-21T05:34:03;94.80;;;38.05;;
33593;SDS011;19920;52.242;20.940;2022-11-21T05:36:29;91.50;;;38.95;;
33593;SDS011;19920;52.242;20.940;2022-11-21T05:38:55;94.90;;;39.53;;
33593;SDS011;19920;52.242;20.940;2022-11-21T05:41:21;86.68;;;39.42;;
33593;SDS011;19920;52.242;20.940;2022-11-21T05:43:46;88.13;;;38.65;;
33593;SDS011;19920;52.242;20.940;2022-11-21T05:46:19;95.78;;;41.00;;
33593;SDS011;19920;52.242;20.940;2022-11-21T05:48:46;97.18;;;39.85;;
33593;SDS011;19920;52.242;20.940;2022-11-21T05:51:13;112.97;;;45.20;;
33593;SDS011;19920;52.242;20.940;2022-11-21T05:53:40;93.82;;;40.05;;
33593;SDS011;19920;52.242;20.940;2022-11-21T05:56:16;97.38;;;39.17;;
33593;SDS011;19920;52.242;20.940;2022-11-21T05:58:42;90.10;;;39.20;;
33593;SDS011;19920;52.242;20.940;2022-11-21T06:01:09;94.72;;;39.95;;
33593;SDS011;19920;52.242;20.940;2022-11-21T06:03:37;102.80;;;41.70;;
33593;SDS011;19920;52.242;20.940;2022-11-21T06:06:08;92.38;;;38.85;;
33593;SDS011;19920;52.242;20.940;2022-11-21T06:08:36;85.15;;;38.13;;
33593;SDS011;19920;52.242;20.940;2022-11-21T06:11:04;90.00;;;38.75;;
33593;SDS011;19920;52.242;20.940;2022-11-21T06:13:31;87.05;;;37.72;;
33593;SDS011;19920;52.242;20.940;2022-11-21T06:16:01;84.63;;;38.88;;
33593;SDS011;19920;52.242;20.940;2022-11-21T06:18:33;97.05;;;41.35;;
33593;SDS011;19920;52.242;20.940;2022-11-21T06:21:21;97.35;;;41.00;;
33593;SDS011;19920;52.242;20.940;2022-11-21T06:23:46;91.53;;;38.00;;
33593;SDS011;19920;52.242;20.940;2022-11-21T06:26:16;93.90;;;39.70;;
33593;SDS011;19920;52.242;20.940;2022-11-21T06:28:44;88.53;;;39.35;;
33593;SDS011;19920;52.242;20.940;2022-11-21T06:31:20;88.78;;;37.97;;
33593;SDS011;19920;52.242;20.940;2022-11-21T06:33:50;91.30;;;37.70;;
33593;SDS011;19920;52.242;20.940;2022-11-21T06:36:20;84.57;;;36.67;;
33593;SDS011;19920;52.242;20.940;2022-11-21T06:38:46;90.53;;;37.42;;
33593;SDS011;19920;52.242;20.940;2022-11-21T06:41:16;87.43;;;37.58;;
33593;SDS011;19920;52.242;20.940;2022-11-21T06:43:44;85.65;;;37.92;;
33593;SDS011;19920;52.242;20.940;2022-11-21T06:46:10;84.68;;;37.22;;
33593;SDS011;19920;52.242;20.940;2022-11-21T06:48:37;85.18;;;37.72;;
33593;SDS011;19920;52.242;20.940;2022-11-21T06:51:04;81.13;;;36.50;;
33593;SDS011;19920;52.242;20.940;2022-11-21T06:53:30;81.78;;;36.92;;
33593;SDS011;19920;52.242;20.940;2022-11-21T06:56:02;80.68;;;36.05;;
33593;SDS011;19920;52.242;20.940;2022-11-21T06:58:29;85.22;;;37.17;;
33593;SDS011;19920;52.242;20.940;2022-11-21T07:00:55;82.30;;;36.03;;
33593;SDS011;19920;52.242;20.940;2022-11-21T07:03:21;79.32;;;35.60;;
33593;SDS011;19920;52.242;20.940;2022-11-21T07:05:47;81.13;;;35.40;;
33593;SDS011;19920;52.242;20.940;2022-11-21T07:08:14;83.13;;;36.58;;
33593;SDS011;19920;52.242;20.940;2022-11-21T07:10:39;76.53;;;34.33;;
33593;SDS011;19920;52.242;20.940;2022-11-21T07:13:05;76.60;;;34.92;;
33593;SDS011;19920;52.242;20.940;2022-11-21T07:15:47;77.95;;;34.42;;
33593;SDS011;19920;52.242;20.940;2022-11-21T07:18:15;75.95;;;34.50;;
33593;SDS011;19920;52.242;20.940;2022-11-21T07:20:40;81.35;;;34.28;;
33593;SDS011;19920;52.242;20.940;2022-11-21T07:23:06;70.90;;;32.92;;
33593;SDS011;19920;52.242;20.940;2022-11-21T07:25:33;78.90;;;33.88;;
33593;SDS011;19920;52.242;20.940;2022-11-21T07:27:59;74.90;;;32.97;;
33593;SDS011;19920;52.242;20.940;2022-11-21T07:30:26;75.40;;;32.78;;
33593;SDS011;19920;52.242;20.940;2022-11-21T07:32:55;72.18;;;33.22;;
33593;SDS011;19920;52.242;20.940;2022-11-21T07:35:27;70.60;;;32.22;;
33593;SDS011;19920;52.242;20.940;2022-11-21T07:37:53;72.15;;;32.40;;
33593;SDS011;19920;52.242;20.940;2022-11-21T07:40:19;68.20;;;30.92;;
33593;SDS011;19920;52.242;20.940;2022-11-21T07:42:45;70.43;;;31.77;;
33593;SDS011;19920;52.242;20.940;2022-11-21T07:45:12;73.40;;;31.80;;
33593;SDS011;19920;52.242;20.940;2022-11-21T07:47:39;70.85;;;31.40;;
33593;SDS011;19920;52.242;20.940;2022-11-21T07:50:05;63.85;;;30.27;;
33593;SDS011;19920;52.242;20.940;2022-11-21T07:52:32;70.40;;;30.73;;
33593;SDS011;19920;52.242;20.940;2022-11-21T07:54:57;71.85;;;32.38;;
33593;SDS011;19920;52.242;20.940;2022-11-21T07:57:24;67.70;;;31.20;;
33593;SDS011;19920;52.242;20.940;2022-11-21T07:59:50;63.58;;;28.92;;
33593;SDS011;19920;52.242;20.940;2022-11-21T08:02:19;61.47;;;28.40;;
33593;SDS011;19920;52.242;20.940;2022-11-21T08:04:46;75.47;;;30.48;;
33593;SDS011;19920;52.242;20.940;2022-11-21T08:07:13;60.88;;;28.75;;
33593;SDS011;19920;52.242;20.940;2022-11-21T08:09:39;62.90;;;28.65;;
33593;SDS011;19920;52.242;20.940;2022-11-21T08:12:06;60.50;;;28.08;;
33593;SDS011;19920;52.242;20.940;2022-11-21T08:14:32;58.63;;;28.20;;
33593;SDS011;19920;52.242;20.940;2022-11-21T08:16:58;60.67;;;28.90;;
33593;SDS011;19920;52.242;20.940;2022-11-21T08:19:24;61.08;;;27.77;;
33593;SDS011;19920;52.242;20.940;2022-11-21T08:21:49;60.80;;;28.25;;
33593;SDS011;19920;52.242;20.940;2022-11-21T08:24:15;54.78;;;26.70;;
33593;SDS011;19920;52.242;20.940;2022-11-21T08:26:42;48.78;;;25.95;;
33593;SDS011;19920;52.242;20.940;2022-11-21T08:29:09;59.88;;;27.20;;
33593;SDS011;19920;52.242;20.940;2022-11-21T08:31:35;57.30;;;27.05;;
33593;SDS011;19920;52.242;20.940;2022-11-21T08:34:02;57.72;;;25.98;;
33593;SDS011;19920;52.242;20.940;2022-11-21T08:36:27;55.58;;;26.25;;
33593;SDS011;19920;52.242;20.940;2022-11-21T08:38:53;62.95;;;28.00;;
33593;SDS011;19920;52.242;20.940;2022-11-21T08:41:19;53.10;;;24.95;;
33593;SDS011;19920;52.242;20.940;2022-11-21T08:44:03;52.78;;;24.63;;
33593;SDS011;19920;52.242;20.940;2022-11-21T08:46:30;48.63;;;24.15;;
33593;SDS011;19920;52.242;20.940;2022-11-21T08:48:59;51.53;;;24.40;;
33593;SDS011;19920;52.242;20.940;2022-11-21T08:51:25;51.63;;;23.42;;
33593;SDS011;19920;52.242;20.940;2022-11-21T08:53:50;49.65;;;24.20;;
33593;SDS011;19920;52.242;20.940;2022-11-21T08:56:16;49.70;;;22.52;;
33593;SDS011;19920;52.242;20.940;2022-11-21T08:58:42;46.00;;;22.35;;
33593;SDS011;19920;52.242;20.940;2022-11-21T09:01:07;45.03;;;22.60;;
33593;SDS011;19920;52.242;20.940;2022-11-21T09:03:33;47.40;;;23.35;;
33593;SDS011;19920;52.242;20.940;2022-11-21T09:05:59;45.13;;;22.23;;
33593;SDS011;19920;52.242;20.940;2022-11-21T09:08:25;46.38;;;22.50;;
33593;SDS011;19920;52.242;20.940;2022-11-21T09:10:51;44.63;;;22.50;;
33593;SDS011;19920;52.242;20.940;2022-11-21T09:13:17;45.28;;;22.00;;
33593;SDS011;19920;52.242;20.940;2022-11-21T09:15:42;44.38;;;20.55;;
33593;SDS011;19920;52.242;20.940;2022-11-21T09:18:26;41.60;;;19.75;;
33593;SDS011;19920;52.242;20.940;2022-11-21T09:20:52;38.22;;;20.15;;
33593;SDS011;19920;52.242;20.940;2022-11-21T09:23:18;42.83;;;20.77;;
33593;SDS011;19920;52.242;20.940;2022-11-21T09:25:43;43.28;;;20.60;;
33593;SDS011;19920;52.242;20.940;2022-11-21T09:28:11;45.33;;;22.45;;
33593;SDS011;19920;52.242;20.940;2022-11-21T09:30:37;46.78;;;23.45;;
33593;SDS011;19920;52.242;20.940;2022-11-21T09:33:04;47.05;;;23.08;;
33593;SDS011;19920;52.242;20.940;2022-11-21T09:35:31;44.83;;;22.90;;
33593;SDS011;19920;52.242;20.940;2022-11-21T09:37:57;47.42;;;22.88;;
33593;SDS011;19920;52.242;20.940;2022-11-21T09:40:23;48.60;;;23.50;;
33593;SDS011;19920;52.242;20.940;2022-11-21T09:42:59;46.75;;;22.17;;
33593;SDS011;19920;52.242;20.940;2022-11-21T09:45:36;39.80;;;21.00;;
33593;SDS011;19920;52.242;20.940;2022-11-21T09:48:11;42.97;;;21.83;;
33593;SDS011;19920;52.242;20.940;2022-11-21T09:50:42;40.40;;;21.70;;
33593;SDS011;19920;52.242;20.940;2022-11-21T09:53:16;45.25;;;23.40;;
33593;SDS011;19920;52.242;20.940;2022-11-21T09:55:50;49.22;;;24.52;;
33593;SDS011;19920;52.242;20.940;2022-11-21T10:00:56;54.55;;;25.02;;
33593;SDS011;19920;52.242;20.940;2022-11-21T10:03:23;48.85;;;24.55;;
33593;SDS011;19920;52.242;20.940;2022-11-21T10:05:57;47.42;;;25.40;;
33593;SDS011;19920;52.242;20.940;2022-11-21T10:08:38;50.38;;;25.25;;
33593;SDS011;19920;52.242;20.940;2022-11-21T10:16:54;56.28;;;27.88;;
33593;SDS011;19920;52.242;20.940;2022-11-21T10:22:39;52.53;;;28.27;;
33593;SDS011;19920;52.242;20.940;2022-11-21T10:25:12;51.80;;;26.88;;
33593;SDS011;19920;52.242;20.940;2022-11-21T10:30:15;56.47;;;28.23;;
33593;SDS011;19920;52.242;20.940;2022-11-21T10:32:46;57.97;;;28.85;;
33593;SDS011;19920;52.242;20.940;2022-11-21T10:37:52;54.47;;;28.90;;
33593;SDS011;19920;52.242;20.940;2022-11-21T10:40:26;54.03;;;28.27;;
33593;SDS011;19920;52.242;20.940;2022-11-21T10:43:25;56.65;;;28.75;;
33593;SDS011;19920;52.242;20.940;2022-11-21T10:46:21;52.20;;;26.08;;
33593;SDS011;19920;52.242;20.940;2022-11-21T10:48:58;52.90;;;27.55;;
33593;SDS011;19920;52.242;20.940;2022-11-21T10:54:22;52.15;;;26.52;;
33593;SDS011;19920;52.242;20.940;2022-11-21T10:57:12;53.95;;;27.13;;
33593;SDS011;19920;52.242;20.940;2022-11-21T10:59:41;52.08;;;25.27;;
33593;SDS011;19920;52.242;20.940;2022-11-21T11:03:19;51.20;;;26.90;;
33593;SDS011;19920;52.242;20.940;2022-11-21T11:05:32;54.22;;;25.85;;
33593;SDS011;19920;52.242;20.940;2022-11-21T11:13:16;53.55;;;25.13;;
33593;SDS011;19920;52.242;20.940;2022-11-21T11:21:17;46.65;;;24.85;;
33593;SDS011;19920;52.242;20.940;2022-11-21T11:23:54;50.78;;;25.95;;
33593;SDS011;19920;52.242;20.940;2022-11-21T11:29:21;49.05;;;25.02;;
33593;SDS011;19920;52.242;20.940;2022-11-21T11:31:55;48.05;;;25.33;;
33593;SDS011;19920;52.242;20.940;2022-11-21T11:48:32;47.53;;;24.15;;
33593;SDS011;19920;52.242;20.940;2022-11-21T11:51:03;52.58;;;26.25;;
33593;SDS011;19920;52.242;20.940;2022-11-21T11:54:12;44.13;;;23.90;;
33593;SDS011;19920;52.242;20.940;2022-11-21T11:56:47;41.20;;;23.48;;
33593;SDS011;19920;52.242;20.940;2022-11-21T12:01:49;43.42;;;23.70;;
33593;SDS011;19920;52.242;20.940;2022-11-21T12:04:26;48.72;;;24.77;;
33593;SDS011;19920;52.242;20.940;2022-11-21T12:07:08;47.45;;;24.05;;
33593;SDS011;19920;52.242;20.940;2022-11-21T12:12:51;42.15;;;23.17;;
33593;SDS011;19920;52.242;20.940;2022-11-21T12:15:26;44.38;;;24.80;;
33593;SDS011;19920;52.242;20.940;2022-11-21T12:20:50;43.47;;;24.60;;
33593;SDS011;19920;52.242;20.940;2022-11-21T12:23:18;46.03;;;24.45;;
33593;SDS011;19920;52.242;20.940;2022-11-21T12:25:52;46.42;;;24.75;;
33593;SDS011;19920;52.242;20.940;2022-11-21T12:34:07;48.08;;;23.25;;
33593;SDS011;19920;52.242;20.940;2022-11-21T12:39:42;40.15;;;23.55;;
33593;SDS011;19920;52.242;20.940;2022-11-21T12:48:13;43.28;;;23.70;;
33593;SDS011;19920;52.242;20.940;2022-11-21T12:51:08;41.70;;;22.55;;
33593;SDS011;19920;52.242;20.940;2022-11-21T12:56:58;46.45;;;23.08;;
33593;SDS011;19920;52.242;20.940;2022-11-21T13:02:42;45.40;;;22.67;;
33593;SDS011;19920;52.242;20.940;2022-11-21T13:05:35;50.88;;;24.35;;
33593;SDS011;19920;52.242;20.940;2022-11-21T13:08:06;48.10;;;24.75;;
33593;SDS011;19920;52.242;20.940;2022-11-21T13:10:39;50.88;;;25.95;;
33593;SDS011;19920;52.242;20.940;2022-11-21T13:13:24;50.97;;;24.75;;
33593;SDS011;19920;52.242;20.940;2022-11-21T13:15:57;45.70;;;23.67;;
33593;SDS011;19920;52.242;20.940;2022-11-21T13:18:32;50.45;;;24.55;;
33593;SDS011;19920;52.242;20.940;2022-11-21T13:21:07;46.92;;;23.20;;
33593;SDS011;19920;52.242;20.940;2022-11-21T13:24:42;46.72;;;23.60;;
33593;SDS011;19920;52.242;20.940;2022-11-21T13:27:06;46.42;;;22.80;;
33593;SDS011;19920;52.242;20.940;2022-11-21T13:29:32;47.90;;;23.45;;
33593;SDS011;19920;52.242;20.940;2022-11-21T13:31:58;48.42;;;24.58;;
33593;SDS011;19920;52.242;20.940;2022-11-21T13:35:25;50.47;;;23.52;;
33593;SDS011;19920;52.242;20.940;2022-11-21T13:45:45;50.95;;;25.05;;
33593;SDS011;19920;52.242;20.940;2022-11-21T13:56:55;52.25;;;25.55;;
33593;SDS011;19920;52.242;20.940;2022-11-21T14:08:12;55.63;;;27.08;;
33593;SDS011;19920;52.242;20.940;2022-11-21T14:10:38;54.58;;;25.75;;
33593;SDS011;19920;52.242;20.940;2022-11-21T14:13:13;54.15;;;26.42;;
33593;SDS011;19920;52.242;20.940;2022-11-21T14:18:34;54.15;;;27.35;;
33593;SDS011;19920;52.242;20.940;2022-11-21T14:21:02;52.58;;;26.50;;
33593;SDS011;19920;52.242;20.940;2022-11-21T14:23:29;49.80;;;26.08;;
33593;SDS011;19920;52.242;20.940;2022-11-21T14:28:44;58.58;;;28.95;;
33593;SDS011;19920;52.242;20.940;2022-11-21T14:31:10;60.50;;;27.65;;
33593;SDS011;19920;52.242;20.940;2022-11-21T14:33:40;57.47;;;29.08;;
33593;SDS011;19920;52.242;20.940;2022-11-21T14:36:21;59.17;;;30.90;;
33593;SDS011;19920;52.242;20.940;2022-11-21T14:38:53;54.42;;;27.88;;
33593;SDS011;19920;52.242;20.940;2022-11-21T14:43:48;55.15;;;27.08;;
33593;SDS011;19920;52.242;20.940;2022-11-21T14:46:41;56.20;;;27.08;;
33593;SDS011;19920;52.242;20.940;2022-11-21T14:51:43;52.00;;;26.13;;
33593;SDS011;19920;52.242;20.940;2022-11-21T14:54:21;57.67;;;26.98;;
33593;SDS011;19920;52.242;20.940;2022-11-21T14:57:17;54.72;;;27.08;;
33593;SDS011;19920;52.242;20.940;2022-11-21T14:59:54;56.03;;;26.67;;
33593;SDS011;19920;52.242;20.940;2022-11-21T15:02:22;56.35;;;27.33;;
33593;SDS011;19920;52.242;20.940;2022-11-21T15:04:50;58.55;;;27.50;;
33593;SDS011;19920;52.242;20.940;2022-11-21T15:09:50;68.28;;;31.88;;
33593;SDS011;19920;52.242;20.940;2022-11-21T15:12:21;67.20;;;32.35;;
33593;SDS011;19920;52.242;20.940;2022-11-21T15:14:59;69.57;;;34.33;;
33593;SDS011;19920;52.242;20.940;2022-11-21T15:17:30;66.65;;;34.08;;
33593;SDS011;19920;52.242;20.940;2022-11-21T15:20:05;77.50;;;36.03;;
33593;SDS011;19920;52.242;20.940;2022-11-21T15:22:37;72.55;;;35.38;;
33593;SDS011;19920;52.242;20.940;2022-11-21T15:25:07;76.30;;;35.35;;
33593;SDS011;19920;52.242;20.940;2022-11-21T15:27:45;75.20;;;36.80;;
33593;SDS011;19920;52.242;20.940;2022-11-21T15:38:13;76.10;;;36.10;;
33593;SDS011;19920;52.242;20.940;2022-11-21T15:46:00;76.50;;;34.80;;
33593;SDS011;19920;52.242;20.940;2022-11-21T15:48:28;76.60;;;35.17;;
33593;SDS011;19920;52.242;20.940;2022-11-21T15:50:55;76.43;;;35.22;;
33593;SDS011;19920;52.242;20.940;2022-11-21T15:53:21;71.82;;;34.70;;
33593;SDS011;19920;52.242;20.940;2022-11-21T15:55:47;72.85;;;33.90;;
33593;SDS011;19920;52.242;20.940;2022-11-21T15:58:12;75.32;;;35.58;;
33593;SDS011;19920;52.242;20.940;2022-11-21T16:00:38;77.13;;;35.45;;
33593;SDS011;19920;52.242;20.940;2022-11-21T16:03:03;74.03;;;35.17;;
33593;SDS011;19920;52.242;20.940;2022-11-21T16:05:29;73.43;;;34.70;;
33593;SDS011;19920;52.242;20.940;2022-11-21T16:07:55;74.13;;;34.15;;
33593;SDS011;19920;52.242;20.940;2022-11-21T16:10:20;73.25;;;34.53;;
33593;SDS011;19920;52.242;20.940;2022-11-21T16:12:46;75.25;;;34.05;;
33593;SDS011;19920;52.242;20.940;2022-11-21T16:15:12;76.68;;;34.33;;
33593;SDS011;19920;52.242;20.940;2022-11-21T16:17:38;76.93;;;36.20;;
33593;SDS011;19920;52.242;20.940;2022-11-21T16:20:05;73.22;;;34.13;;
33593;SDS011;19920;52.242;20.940;2022-11-21T16:22:31;74.40;;;33.70;;
33593;SDS011;19920;52.242;20.940;2022-11-21T16:24:57;79.57;;;34.38;;
33593;SDS011;19920;52.242;20.940;2022-11-21T16:27:23;74.72;;;35.17;;
33593;SDS011;19920;52.242;20.940;2022-11-21T16:29:49;75.03;;;33.83;;
33593;SDS011;19920;52.242;20.940;2022-11-21T16:32:14;76.15;;;35.25;;
33593;SDS011;19920;52.242;20.940;2022-11-21T16:34:40;80.00;;;35.28;;
33593;SDS011;19920;52.242;20.940;2022-11-21T16:37:05;72.57;;;33.92;;
33593;SDS011;19920;52.242;20.940;2022-11-21T16:39:31;75.85;;;33.72;;
33593;SDS011;19920;52.242;20.940;2022-11-21T16:41:57;71.47;;;33.20;;
33593;SDS011;19920;52.242;20.940;2022-11-21T16:44:23;74.35;;;33.42;;
33593;SDS011;19920;52.242;20.940;2022-11-21T16:46:49;76.28;;;34.80;;